sensor_id;sensor_type;location;lat;lon;timestamp;pressure;altitude;pressure_sealevel;temperature
75353;BMP280;76704;51.574;7.088;2024-02-23T00:00:36;59797.88;;;10.17
75353;BMP280;76704;51.574;7.088;2024-02-23T00:03:03;59289.22;;;10.07
75353;BMP280;76704;51.574;7.088;2024-02-23T00:05:30;59283.06;;;10.06
75353;BMP280;76704;51.574;7.088;2024-02-23T00:07:58;58650.75;;;9.91
75353;BMP280;76704;51.574;7.088;2024-02-23T00:10:25;57299.63;;;9.66
75353;BMP280;76704;51.574;7.088;2024-02-23T00:12:52;56948.84;;;9.56
75353;BMP280;76704;51.574;7.088;2024-02-23T00:15:19;56778.88;;;9.50
75353;BMP280;76704;51.574;7.088;2024-02-23T00:17:46;56738.84;;;9.46
75353;BMP280;76704;51.574;7.088;2024-02-23T00:20:13;56116.69;;;9.31
75353;BMP280;76704;51.574;7.088;2024-02-23T00:22:42;56015.50;;;9.24
75353;BMP280;76704;51.574;7.088;2024-02-23T00:25:08;56171.56;;;9.24
75353;BMP280;76704;51.574;7.088;2024-02-23T00:27:35;56609.28;;;9.30
75353;BMP280;76704;51.574;7.088;2024-02-23T00:30:03;56362.94;;;9.24
75353;BMP280;76704;51.574;7.088;2024-02-23T00:32:30;56654.13;;;9.27
75353;BMP280;76704;51.574;7.088;2024-02-23T00:34:57;56552.66;;;9.23
75353;BMP280;76704;51.574;7.088;2024-02-23T00:37:24;56562.03;;;9.21
75353;BMP280;76704;51.574;7.088;2024-02-23T00:39:51;56130.31;;;9.12
75353;BMP280;76704;51.574;7.088;2024-02-23T00:42:18;56894.88;;;9.23
75353;BMP280;76704;51.574;7.088;2024-02-23T00:44:47;56777.88;;;9.19
75353;BMP280;76704;51.574;7.088;2024-02-23T00:47:14;57444.19;;;9.29
75353;BMP280;76704;51.574;7.088;2024-02-23T00:49:41;56993.59;;;9.20
75353;BMP280;76704;51.574;7.088;2024-02-23T00:52:08;56667.25;;;9.13
75353;BMP280;76704;51.574;7.088;2024-02-23T00:54:34;56655.81;;;9.12
75353;BMP280;76704;51.574;7.088;2024-02-23T00:57:01;57358.72;;;9.22
75353;BMP280;76704;51.574;7.088;2024-02-23T00:59:28;57220.50;;;9.19
75353;BMP280;76704;51.574;7.088;2024-02-23T01:01:55;57178.47;;;9.19
75353;BMP280;76704;51.574;7.088;2024-02-23T01:04:22;56772.84;;;9.06
75353;BMP280;76704;51.574;7.088;2024-02-23T01:06:49;56962.22;;;9.11
75353;BMP280;76704;51.574;7.088;2024-02-23T01:09:16;57190.22;;;9.14
75353;BMP280;76704;51.574;7.088;2024-02-23T01:11:47;57609.53;;;9.21
75353;BMP280;76704;51.574;7.088;2024-02-23T01:14:15;57691.81;;;9.21
75353;BMP280;76704;51.574;7.088;2024-02-23T01:16:42;57680.75;;;9.20
75353;BMP280;76704;51.574;7.088;2024-02-23T01:19:09;57836.78;;;9.23
75353;BMP280;76704;51.574;7.088;2024-02-23T01:21:36;57759.94;;;9.20
75353;BMP280;76704;51.574;7.088;2024-02-23T01:24:04;57674.19;;;9.19
75353;BMP280;76704;51.574;7.088;2024-02-23T01:26:31;57602.25;;;9.15
75353;BMP280;76704;51.574;7.088;2024-02-23T01:28:58;57924.47;;;9.20
75353;BMP280;76704;51.574;7.088;2024-02-23T01:31:25;58178.19;;;9.25
75353;BMP280;76704;51.574;7.088;2024-02-23T01:33:52;57906.31;;;9.20
75353;BMP280;76704;51.574;7.088;2024-02-23T01:36:19;57536.06;;;9.12
75353;BMP280;76704;51.574;7.088;2024-02-23T01:38:46;57728.78;;;9.14
75353;BMP280;76704;51.574;7.088;2024-02-23T01:41:14;58010.75;;;9.18
75353;BMP280;76704;51.574;7.088;2024-02-23T01:43:41;58471.00;;;9.26
75353;BMP280;76704;51.574;7.088;2024-02-23T01:46:08;58150.91;;;9.21
75353;BMP280;76704;51.574;7.088;2024-02-23T01:48:35;57837.97;;;9.14
75353;BMP280;76704;51.574;7.088;2024-02-23T01:51:03;58077.09;;;9.18
75353;BMP280;76704;51.574;7.088;2024-02-23T01:53:30;58658.97;;;9.28
75353;BMP280;76704;51.574;7.088;2024-02-23T01:55:59;58717.81;;;9.29
75353;BMP280;76704;51.574;7.088;2024-02-23T01:58:27;58693.47;;;9.28
75353;BMP280;76704;51.574;7.088;2024-02-23T02:00:55;58724.41;;;9.30
75353;BMP280;76704;51.574;7.088;2024-02-23T02:03:22;58040.38;;;9.19
75353;BMP280;76704;51.574;7.088;2024-02-23T02:05:49;58107.25;;;9.16
75353;BMP280;76704;51.574;7.088;2024-02-23T02:08:17;58204.50;;;9.18
75353;BMP280;76704;51.574;7.088;2024-02-23T02:10:44;58619.66;;;9.26
75353;BMP280;76704;51.574;7.088;2024-02-23T02:13:12;58677.22;;;9.25
75353;BMP280;76704;51.574;7.088;2024-02-23T02:15:39;58544.47;;;9.25
75353;BMP280;76704;51.574;7.088;2024-02-23T02:18:06;58983.69;;;9.32
75353;BMP280;76704;51.574;7.088;2024-02-23T02:20:36;59010.69;;;9.33
75353;BMP280;76704;51.574;7.088;2024-02-23T02:23:03;59112.44;;;9.34
75353;BMP280;76704;51.574;7.088;2024-02-23T02:25:30;59527.53;;;9.41
75353;BMP280;76704;51.574;7.088;2024-02-23T02:27:57;59142.13;;;9.31
75353;BMP280;76704;51.574;7.088;2024-02-23T02:30:24;58907.63;;;9.30
75353;BMP280;76704;51.574;7.088;2024-02-23T02:32:51;58807.22;;;9.28
75353;BMP280;76704;51.574;7.088;2024-02-23T02:35:18;59101.81;;;9.34
75353;BMP280;76704;51.574;7.088;2024-02-23T02:37:45;59025.31;;;9.31
75353;BMP280;76704;51.574;7.088;2024-02-23T02:40:12;59319.97;;;9.37
75353;BMP280;76704;51.574;7.088;2024-02-23T02:42:39;58855.88;;;9.29
75353;BMP280;76704;51.574;7.088;2024-02-23T02:45:06;59059.38;;;9.31
75353;BMP280;76704;51.574;7.088;2024-02-23T02:47:33;59123.97;;;9.32
75353;BMP280;76704;51.574;7.088;2024-02-23T02:50:02;59477.53;;;9.38
75353;BMP280;76704;51.574;7.088;2024-02-23T02:52:29;59832.06;;;9.46
75353;BMP280;76704;51.574;7.088;2024-02-23T02:54:56;61029.84;;;9.66
75353;BMP280;76704;51.574;7.088;2024-02-23T02:57:22;60465.81;;;9.60
75353;BMP280;76704;51.574;7.088;2024-02-23T02:59:49;59855.53;;;9.49
75353;BMP280;76704;51.574;7.088;2024-02-23T03:02:17;59931.25;;;9.50
75353;BMP280;76704;51.574;7.088;2024-02-23T03:04:48;59771.84;;;9.47
75353;BMP280;76704;51.574;7.088;2024-02-23T03:07:18;59485.41;;;9.45
75353;BMP280;76704;51.574;7.088;2024-02-23T03:09:45;59566.47;;;9.43
75353;BMP280;76704;51.574;7.088;2024-02-23T03:12:13;59875.47;;;9.47
75353;BMP280;76704;51.574;7.088;2024-02-23T03:14:40;60061.00;;;9.50
75353;BMP280;76704;51.574;7.088;2024-02-23T03:17:08;59234.09;;;9.36
75353;BMP280;76704;51.574;7.088;2024-02-23T03:27:41;59026.22;;;9.29
75353;BMP280;76704;51.574;7.088;2024-02-23T03:30:08;59330.63;;;9.34
75353;BMP280;76704;51.574;7.088;2024-02-23T03:32:35;59343.00;;;9.36
75353;BMP280;76704;51.574;7.088;2024-02-23T03:35:06;60057.00;;;9.48
75353;BMP280;76704;51.574;7.088;2024-02-23T03:37:35;60202.69;;;9.51
75353;BMP280;76704;51.574;7.088;2024-02-23T03:40:02;60478.16;;;9.56
75353;BMP280;76704;51.574;7.088;2024-02-23T03:42:31;60081.78;;;9.49
75353;BMP280;76704;51.574;7.088;2024-02-23T03:44:58;60440.97;;;9.56
75353;BMP280;76704;51.574;7.088;2024-02-23T03:47:25;60273.56;;;9.53
75353;BMP280;76704;51.574;7.088;2024-02-23T03:49:52;60178.34;;;9.50
75353;BMP280;76704;51.574;7.088;2024-02-23T03:52:19;59855.97;;;9.46
75353;BMP280;76704;51.574;7.088;2024-02-23T03:54:46;59851.09;;;9.47
75353;BMP280;76704;51.574;7.088;2024-02-23T03:57:13;59268.69;;;9.33
75353;BMP280;76704;51.574;7.088;2024-02-23T03:59:54;59551.53;;;9.29
75353;BMP280;76704;51.574;7.088;2024-02-23T04:02:21;60471.97;;;9.55
75353;BMP280;76704;51.574;7.088;2024-02-23T04:04:48;60528.59;;;9.40
75353;BMP280;76704;51.574;7.088;2024-02-23T04:07:15;60381.63;;;9.55
75353;BMP280;76704;51.574;7.088;2024-02-23T04:09:42;60504.31;;;9.52
75353;BMP280;76704;51.574;7.088;2024-02-23T04:12:10;60530.47;;;9.58
75353;BMP280;76704;51.574;7.088;2024-02-23T04:14:37;60679.31;;;9.61
75353;BMP280;76704;51.574;7.088;2024-02-23T04:17:04;61257.66;;;9.72
75353;BMP280;76704;51.574;7.088;2024-02-23T04:19:32;60923.03;;;9.66
75353;BMP280;76704;51.574;7.088;2024-02-23T04:21:59;61004.59;;;9.68
75353;BMP280;76704;51.574;7.088;2024-02-23T04:24:26;60999.28;;;9.68
75353;BMP280;76704;51.574;7.088;2024-02-23T04:26:53;60844.59;;;9.64
75353;BMP280;76704;51.574;7.088;2024-02-23T04:29:20;60325.81;;;9.55
75353;BMP280;76704;51.574;7.088;2024-02-23T04:31:47;61030.28;;;9.67
75353;BMP280;76704;51.574;7.088;2024-02-23T04:34:15;60753.78;;;9.64
75353;BMP280;76704;51.574;7.088;2024-02-23T04:36:43;61458.53;;;9.76
75353;BMP280;76704;51.574;7.088;2024-02-23T04:39:10;61213.38;;;9.73
75353;BMP280;76704;51.574;7.088;2024-02-23T04:41:37;61374.34;;;9.77
75353;BMP280;76704;51.574;7.088;2024-02-23T04:44:04;60980.22;;;9.67
75353;BMP280;76704;51.574;7.088;2024-02-23T04:46:31;60286.38;;;9.55
75353;BMP280;76704;51.574;7.088;2024-02-23T04:49:02;61035.53;;;9.61
75353;BMP280;76704;51.574;7.088;2024-02-23T04:51:29;60681.56;;;9.63
75353;BMP280;76704;51.574;7.088;2024-02-23T04:53:56;61340.59;;;9.75
75353;BMP280;76704;51.574;7.088;2024-02-23T04:56:23;61494.47;;;9.78
75353;BMP280;76704;51.574;7.088;2024-02-23T04:58:51;61102.13;;;9.70
75353;BMP280;76704;51.574;7.088;2024-02-23T05:01:18;60427.69;;;9.59
75353;BMP280;76704;51.574;7.088;2024-02-23T05:03:46;60767.06;;;9.64
75353;BMP280;76704;51.574;7.088;2024-02-23T05:06:13;61333.94;;;9.74
75353;BMP280;76704;51.574;7.088;2024-02-23T05:08:40;61373.38;;;9.73
75353;BMP280;76704;51.574;7.088;2024-02-23T05:11:07;61187.69;;;9.74
75353;BMP280;76704;51.574;7.088;2024-02-23T05:13:35;61289.19;;;9.74
75353;BMP280;76704;51.574;7.088;2024-02-23T05:16:02;60476.88;;;9.60
75353;BMP280;76704;51.574;7.088;2024-02-23T05:18:29;60613.28;;;9.58
75353;BMP280;76704;51.574;7.088;2024-02-23T05:20:56;60414.38;;;9.56
75353;BMP280;76704;51.574;7.088;2024-02-23T05:23:22;60345.28;;;9.56
75353;BMP280;76704;51.574;7.088;2024-02-23T05:25:50;60864.09;;;9.65
75353;BMP280;76704;51.574;7.088;2024-02-23T05:28:17;61437.25;;;9.76
75353;BMP280;76704;51.574;7.088;2024-02-23T05:30:43;61502.44;;;9.78
75353;BMP280;76704;51.574;7.088;2024-02-23T05:33:10;61878.97;;;9.85
75353;BMP280;76704;51.574;7.088;2024-02-23T05:35:37;61256.44;;;9.76
75353;BMP280;76704;51.574;7.088;2024-02-23T05:38:04;61157.13;;;9.75
75353;BMP280;76704;51.574;7.088;2024-02-23T05:40:32;61326.47;;;9.77
75353;BMP280;76704;51.574;7.088;2024-02-23T05:43:00;61186.38;;;9.75
75353;BMP280;76704;51.574;7.088;2024-02-23T05:45:27;60997.09;;;9.72
75353;BMP280;76704;51.574;7.088;2024-02-23T05:47:54;61430.63;;;9.78
75353;BMP280;76704;51.574;7.088;2024-02-23T05:50:21;61640.38;;;9.80
75353;BMP280;76704;51.574;7.088;2024-02-23T05:52:48;61541.50;;;9.80
75353;BMP280;76704;51.574;7.088;2024-02-23T05:55:15;60996.69;;;9.74
75353;BMP280;76704;51.574;7.088;2024-02-23T05:57:42;60721.91;;;9.67
75353;BMP280;76704;51.574;7.088;2024-02-23T06:00:10;60714.78;;;9.65
75353;BMP280;76704;51.574;7.088;2024-02-23T06:02:39;61291.38;;;9.74
75353;BMP280;76704;51.574;7.088;2024-02-23T06:05:07;61248.81;;;9.71
75353;BMP280;76704;51.574;7.088;2024-02-23T06:07:35;61389.84;;;9.77
75353;BMP280;76704;51.574;7.088;2024-02-23T06:10:04;61127.81;;;9.72
75353;BMP280;76704;51.574;7.088;2024-02-23T06:12:31;61462.03;;;9.74
75353;BMP280;76704;51.574;7.088;2024-02-23T06:14:58;61399.59;;;9.76
75353;BMP280;76704;51.574;7.088;2024-02-23T06:17:25;61604.41;;;9.79
75353;BMP280;76704;51.574;7.088;2024-02-23T06:19:52;60887.22;;;9.71
75353;BMP280;76704;51.574;7.088;2024-02-23T06:22:24;61150.91;;;9.74
75353;BMP280;76704;51.574;7.088;2024-02-23T06:24:52;61146.00;;;9.72
75353;BMP280;76704;51.574;7.088;2024-02-23T06:27:19;61804.03;;;9.85
75353;BMP280;76704;51.574;7.088;2024-02-23T06:29:46;61190.41;;;9.77
75353;BMP280;76704;51.574;7.088;2024-02-23T06:32:12;60685.53;;;9.65
75353;BMP280;76704;51.574;7.088;2024-02-23T06:34:39;61343.72;;;9.76
75353;BMP280;76704;51.574;7.088;2024-02-23T06:37:06;61377.00;;;9.77
75353;BMP280;76704;51.574;7.088;2024-02-23T06:39:33;61685.19;;;9.83
75353;BMP280;76704;51.574;7.088;2024-02-23T06:42:00;61303.84;;;9.76
75353;BMP280;76704;51.574;7.088;2024-02-23T06:44:30;62063.47;;;9.86
75353;BMP280;76704;51.574;7.088;2024-02-23T06:46:58;61639.13;;;9.85
75353;BMP280;76704;51.574;7.088;2024-02-23T06:49:25;61732.69;;;9.85
75353;BMP280;76704;51.574;7.088;2024-02-23T06:51:52;61303.44;;;9.78
75353;BMP280;76704;51.574;7.088;2024-02-23T06:54:19;61540.59;;;9.79
75353;BMP280;76704;51.574;7.088;2024-02-23T06:56:46;61098.19;;;9.75
75353;BMP280;76704;51.574;7.088;2024-02-23T06:59:12;61473.25;;;9.81
75353;BMP280;76704;51.574;7.088;2024-02-23T07:01:58;60733.47;;;9.71
75353;BMP280;76704;51.574;7.088;2024-02-23T07:04:25;61605.34;;;9.80
75353;BMP280;76704;51.574;7.088;2024-02-23T07:06:52;61620.44;;;9.82
75353;BMP280;76704;51.574;7.088;2024-02-23T07:09:21;61788.94;;;9.83
75353;BMP280;76704;51.574;7.088;2024-02-23T07:11:49;62014.38;;;9.91
75353;BMP280;76704;51.574;7.088;2024-02-23T07:14:16;62479.41;;;9.99
75353;BMP280;76704;51.574;7.088;2024-02-23T07:16:45;62282.00;;;9.99
75353;BMP280;76704;51.574;7.088;2024-02-23T07:19:12;62022.44;;;9.94
75353;BMP280;76704;51.574;7.088;2024-02-23T07:21:39;62024.66;;;9.93
75353;BMP280;76704;51.574;7.088;2024-02-23T07:24:09;62238.53;;;9.98
75353;BMP280;76704;51.574;7.088;2024-02-23T07:26:36;62360.56;;;10.00
75353;BMP280;76704;51.574;7.088;2024-02-23T07:29:03;62400.03;;;10.00
75353;BMP280;76704;51.574;7.088;2024-02-23T07:31:30;62187.59;;;10.00
75353;BMP280;76704;51.574;7.088;2024-02-23T07:33:57;62302.59;;;10.04
75353;BMP280;76704;51.574;7.088;2024-02-23T07:36:24;62449.78;;;10.02
75353;BMP280;76704;51.574;7.088;2024-02-23T07:38:51;62709.13;;;10.09
75353;BMP280;76704;51.574;7.088;2024-02-23T07:41:18;62452.56;;;10.05
75353;BMP280;76704;51.574;7.088;2024-02-23T07:43:45;62093.06;;;9.99
75353;BMP280;76704;51.574;7.088;2024-02-23T07:46:12;62884.94;;;10.12
75353;BMP280;76704;51.574;7.088;2024-02-23T07:48:39;62468.97;;;10.05
75353;BMP280;76704;51.574;7.088;2024-02-23T07:51:07;62882.41;;;10.15
75353;BMP280;76704;51.574;7.088;2024-02-23T07:53:34;63025.38;;;10.17
75353;BMP280;76704;51.574;7.088;2024-02-23T07:56:02;62239.25;;;10.07
75353;BMP280;76704;51.574;7.088;2024-02-23T07:58:29;61970.66;;;9.99
75353;BMP280;76704;51.574;7.088;2024-02-23T08:00:56;61999.56;;;10.01
75353;BMP280;76704;51.574;7.088;2024-02-23T08:03:23;62395.84;;;10.07
75353;BMP280;76704;51.574;7.088;2024-02-23T08:05:50;62375.00;;;10.07
75353;BMP280;76704;51.574;7.088;2024-02-23T08:08:17;62991.69;;;10.18
75353;BMP280;76704;51.574;7.088;2024-02-23T08:10:44;62484.69;;;10.11
75353;BMP280;76704;51.574;7.088;2024-02-23T08:13:11;62866.91;;;10.15
75353;BMP280;76704;51.574;7.088;2024-02-23T08:15:38;63061.88;;;10.19
75353;BMP280;76704;51.574;7.088;2024-02-23T08:18:05;63420.88;;;10.27
75353;BMP280;76704;51.574;7.088;2024-02-23T08:20:32;63465.38;;;10.29
75353;BMP280;76704;51.574;7.088;2024-02-23T08:22:59;63441.41;;;10.29
75353;BMP280;76704;51.574;7.088;2024-02-23T08:25:27;64255.81;;;10.45
75353;BMP280;76704;51.574;7.088;2024-02-23T08:27:56;63744.91;;;10.35
75353;BMP280;76704;51.574;7.088;2024-02-23T08:30:23;63740.22;;;10.38
75353;BMP280;76704;51.574;7.088;2024-02-23T08:32:50;64397.44;;;10.52
75353;BMP280;76704;51.574;7.088;2024-02-23T08:35:17;63917.38;;;10.45
75353;BMP280;76704;51.574;7.088;2024-02-23T08:37:45;64474.94;;;10.55
75353;BMP280;76704;51.574;7.088;2024-02-23T08:40:12;65073.00;;;10.67
75353;BMP280;76704;51.574;7.088;2024-02-23T08:42:39;65148.88;;;10.71
75353;BMP280;76704;51.574;7.088;2024-02-23T08:45:06;64655.16;;;10.65
75353;BMP280;76704;51.574;7.088;2024-02-23T08:47:33;64414.03;;;10.61
75353;BMP280;76704;51.574;7.088;2024-02-23T08:50:02;64819.69;;;10.67
75353;BMP280;76704;51.574;7.088;2024-02-23T08:52:30;64654.66;;;10.64
75353;BMP280;76704;51.574;7.088;2024-02-23T08:54:56;65023.28;;;10.73
75353;BMP280;76704;51.574;7.088;2024-02-23T08:57:23;64975.78;;;10.74
75353;BMP280;76704;51.574;7.088;2024-02-23T08:59:50;65091.41;;;10.75
75353;BMP280;76704;51.574;7.088;2024-02-23T09:02:17;65228.66;;;10.79
75353;BMP280;76704;51.574;7.088;2024-02-23T09:04:44;65376.81;;;10.81
75353;BMP280;76704;51.574;7.088;2024-02-23T09:07:12;65872.88;;;10.94
75353;BMP280;76704;51.574;7.088;2024-02-23T09:09:40;66121.63;;;11.00
75353;BMP280;76704;51.574;7.088;2024-02-23T09:12:07;66272.38;;;11.05
75353;BMP280;76704;51.574;7.088;2024-02-23T09:14:37;66081.38;;;11.03
75353;BMP280;76704;51.574;7.088;2024-02-23T09:17:05;66069.00;;;11.04
75353;BMP280;76704;51.574;7.088;2024-02-23T09:19:35;66146.69;;;11.07
75353;BMP280;76704;51.574;7.088;2024-02-23T09:22:03;66018.28;;;11.04
75353;BMP280;76704;51.574;7.088;2024-02-23T09:24:30;65522.34;;;10.99
75353;BMP280;76704;51.574;7.088;2024-02-23T09:26:57;65419.25;;;11.00
75353;BMP280;76704;51.574;7.088;2024-02-23T09:29:24;65903.53;;;11.04
75353;BMP280;76704;51.574;7.088;2024-02-23T09:31:50;65684.91;;;11.02
75353;BMP280;76704;51.574;7.088;2024-02-23T09:34:19;65207.50;;;10.93
75353;BMP280;76704;51.574;7.088;2024-02-23T09:36:46;66192.34;;;11.10
75353;BMP280;76704;51.574;7.088;2024-02-23T09:39:15;66264.25;;;11.13
75353;BMP280;76704;51.574;7.088;2024-02-23T09:41:42;66589.88;;;11.21
75353;BMP280;76704;51.574;7.088;2024-02-23T09:44:11;67061.88;;;11.31
75353;BMP280;76704;51.574;7.088;2024-02-23T09:46:40;66843.53;;;11.29
75353;BMP280;76704;51.574;7.088;2024-02-23T09:49:11;66408.56;;;11.24
75353;BMP280;76704;51.574;7.088;2024-02-23T09:51:38;66751.00;;;11.30
75353;BMP280;76704;51.574;7.088;2024-02-23T09:54:06;67197.59;;;11.39
75353;BMP280;76704;51.574;7.088;2024-02-23T09:56:33;66627.19;;;11.29
75353;BMP280;76704;51.574;7.088;2024-02-23T09:59:03;66721.63;;;11.30
75353;BMP280;76704;51.574;7.088;2024-02-23T10:01:32;66785.56;;;11.33
75353;BMP280;76704;51.574;7.088;2024-02-23T10:04:00;67549.66;;;11.49
75353;BMP280;76704;51.574;7.088;2024-02-23T10:06:27;67131.94;;;11.45
75353;BMP280;76704;51.574;7.088;2024-02-23T10:08:54;67922.75;;;11.59
75353;BMP280;76704;51.574;7.088;2024-02-23T10:11:22;67644.91;;;11.56
75353;BMP280;76704;51.574;7.088;2024-02-23T10:13:50;67541.31;;;11.54
75353;BMP280;76704;51.574;7.088;2024-02-23T10:16:20;67988.78;;;11.63
75353;BMP280;76704;51.574;7.088;2024-02-23T10:18:47;67646.09;;;11.63
75353;BMP280;76704;51.574;7.088;2024-02-23T10:21:16;67951.22;;;11.66
75353;BMP280;76704;51.574;7.088;2024-02-23T10:23:47;67694.72;;;11.63
75353;BMP280;76704;51.574;7.088;2024-02-23T10:26:14;67728.66;;;11.68
75353;BMP280;76704;51.574;7.088;2024-02-23T10:28:46;68555.84;;;11.82
75353;BMP280;76704;51.574;7.088;2024-02-23T10:31:18;68814.47;;;11.89
75353;BMP280;76704;51.574;7.088;2024-02-23T10:33:45;68376.00;;;11.84
75353;BMP280;76704;51.574;7.088;2024-02-23T10:36:15;69051.78;;;11.96
75353;BMP280;76704;51.574;7.088;2024-02-23T10:38:45;69085.94;;;11.98
75353;BMP280;76704;51.574;7.088;2024-02-23T10:41:13;69555.53;;;12.10
75353;BMP280;76704;51.574;7.088;2024-02-23T10:43:43;69402.94;;;12.10
75353;BMP280;76704;51.574;7.088;2024-02-23T10:46:14;69366.53;;;12.11
75353;BMP280;76704;51.574;7.088;2024-02-23T10:48:43;69395.97;;;12.11
75353;BMP280;76704;51.574;7.088;2024-02-23T10:51:14;69610.91;;;12.20
75353;BMP280;76704;51.574;7.088;2024-02-23T10:53:48;69480.34;;;12.18
75353;BMP280;76704;51.574;7.088;2024-02-23T10:56:15;69741.97;;;12.25
75353;BMP280;76704;51.574;7.088;2024-02-23T10:58:42;69854.38;;;12.27
75353;BMP280;76704;51.574;7.088;2024-02-23T11:01:10;69114.19;;;12.16
75353;BMP280;76704;51.574;7.088;2024-02-23T11:03:38;69716.75;;;12.26
75353;BMP280;76704;51.574;7.088;2024-02-23T11:06:07;70271.44;;;12.37
75353;BMP280;76704;51.574;7.088;2024-02-23T11:08:35;69852.53;;;12.36
75353;BMP280;76704;51.574;7.088;2024-02-23T11:11:09;69884.13;;;12.35
75353;BMP280;76704;51.574;7.088;2024-02-23T11:13:37;70415.97;;;12.45
75353;BMP280;76704;51.574;7.088;2024-02-23T11:16:05;70098.78;;;12.44
75353;BMP280;76704;51.574;7.088;2024-02-23T11:18:36;70661.81;;;12.52
75353;BMP280;76704;51.574;7.088;2024-02-23T11:21:09;70313.59;;;12.47
75353;BMP280;76704;51.574;7.088;2024-02-23T11:23:44;70013.56;;;12.44
75353;BMP280;76704;51.574;7.088;2024-02-23T11:26:11;69002.38;;;12.27
75353;BMP280;76704;51.574;7.088;2024-02-23T11:28:57;69488.88;;;12.34
75353;BMP280;76704;51.574;7.088;2024-02-23T11:31:29;69881.25;;;12.43
75353;BMP280;76704;51.574;7.088;2024-02-23T11:33:57;69394.22;;;12.30
75353;BMP280;76704;51.574;7.088;2024-02-23T11:36:34;69735.56;;;12.42
75353;BMP280;76704;51.574;7.088;2024-02-23T11:39:02;70547.03;;;12.57
75353;BMP280;76704;51.574;7.088;2024-02-23T11:41:29;70827.28;;;12.64
75353;BMP280;76704;51.574;7.088;2024-02-23T11:43:57;70866.34;;;12.68
75353;BMP280;76704;51.574;7.088;2024-02-23T11:46:26;70466.00;;;12.62
75353;BMP280;76704;51.574;7.088;2024-02-23T11:48:53;70213.16;;;12.56
75353;BMP280;76704;51.574;7.088;2024-02-23T11:51:22;70239.38;;;12.58
75353;BMP280;76704;51.574;7.088;2024-02-23T11:53:50;69440.34;;;12.44
75353;BMP280;76704;51.574;7.088;2024-02-23T11:56:18;69331.63;;;12.43
75353;BMP280;76704;51.574;7.088;2024-02-23T11:58:46;69633.13;;;12.47
75353;BMP280;76704;51.574;7.088;2024-02-23T12:01:14;69582.22;;;12.47
75353;BMP280;76704;51.574;7.088;2024-02-23T12:03:41;69757.88;;;12.48
75353;BMP280;76704;51.574;7.088;2024-02-23T12:06:11;69853.66;;;12.53
75353;BMP280;76704;51.574;7.088;2024-02-23T12:08:38;69850.97;;;12.53
75353;BMP280;76704;51.574;7.088;2024-02-23T12:11:06;69119.03;;;12.42
75353;BMP280;76704;51.574;7.088;2024-02-23T12:13:36;68755.09;;;12.37
75353;BMP280;76704;51.574;7.088;2024-02-23T12:16:03;69470.75;;;12.48
75353;BMP280;76704;51.574;7.088;2024-02-23T12:18:34;69424.19;;;12.47
75353;BMP280;76704;51.574;7.088;2024-02-23T12:21:04;68991.66;;;12.40
75353;BMP280;76704;51.574;7.088;2024-02-23T12:26:07;68507.53;;;12.30
75353;BMP280;76704;51.574;7.088;2024-02-23T12:28:34;69274.88;;;12.42
75353;BMP280;76704;51.574;7.088;2024-02-23T12:31:05;69549.44;;;12.49
75353;BMP280;76704;51.574;7.088;2024-02-23T12:33:37;69871.75;;;12.57
75353;BMP280;76704;51.574;7.088;2024-02-23T12:36:08;70061.94;;;12.60
75353;BMP280;76704;51.574;7.088;2024-02-23T12:38:35;69939.25;;;12.58
75353;BMP280;76704;51.574;7.088;2024-02-23T12:41:04;69786.16;;;12.52
75353;BMP280;76704;51.574;7.088;2024-02-23T12:43:32;69955.84;;;12.58
75353;BMP280;76704;51.574;7.088;2024-02-23T12:45:59;69871.16;;;12.59
75353;BMP280;76704;51.574;7.088;2024-02-23T12:48:25;69415.97;;;12.52
75353;BMP280;76704;51.574;7.088;2024-02-23T12:50:52;69450.78;;;12.52
75353;BMP280;76704;51.574;7.088;2024-02-23T12:53:32;69677.28;;;12.56
75353;BMP280;76704;51.574;7.088;2024-02-23T12:56:11;69674.53;;;12.58
75353;BMP280;76704;51.574;7.088;2024-02-23T12:58:39;69488.28;;;12.52
75353;BMP280;76704;51.574;7.088;2024-02-23T13:01:07;69780.13;;;12.57
75353;BMP280;76704;51.574;7.088;2024-02-23T13:03:35;69383.31;;;12.51
75353;BMP280;76704;51.574;7.088;2024-02-23T13:06:03;69837.38;;;12.60
75353;BMP280;76704;51.574;7.088;2024-02-23T13:08:30;69758.69;;;12.57
75353;BMP280;76704;51.574;7.088;2024-02-23T13:10:58;69889.91;;;12.59
75353;BMP280;76704;51.574;7.088;2024-02-23T13:13:25;70127.75;;;12.64
75353;BMP280;76704;51.574;7.088;2024-02-23T13:15:53;70059.63;;;12.66
75353;BMP280;76704;51.574;7.088;2024-02-23T13:18:20;69889.31;;;12.61
75353;BMP280;76704;51.574;7.088;2024-02-23T13:20:47;69820.25;;;12.59
75353;BMP280;76704;51.574;7.088;2024-02-23T13:23:14;69849.13;;;12.61
75353;BMP280;76704;51.574;7.088;2024-02-23T13:25:43;70007.69;;;12.65
75353;BMP280;76704;51.574;7.088;2024-02-23T13:28:10;69515.41;;;12.57
75353;BMP280;76704;51.574;7.088;2024-02-23T13:30:38;69255.13;;;12.54
75353;BMP280;76704;51.574;7.088;2024-02-23T13:33:06;69314.78;;;12.50
75353;BMP280;76704;51.574;7.088;2024-02-23T13:35:35;68371.75;;;12.36
75353;BMP280;76704;51.574;7.088;2024-02-23T13:38:02;67507.88;;;12.18
75353;BMP280;76704;51.574;7.088;2024-02-23T13:40:32;67715.53;;;12.17
75353;BMP280;76704;51.574;7.088;2024-02-23T13:42:59;68363.09;;;12.27
75353;BMP280;76704;51.574;7.088;2024-02-23T13:45:26;68337.84;;;12.29
75353;BMP280;76704;51.574;7.088;2024-02-23T13:47:57;68880.41;;;12.36
75353;BMP280;76704;51.574;7.088;2024-02-23T13:50:25;68306.75;;;12.30
75353;BMP280;76704;51.574;7.088;2024-02-23T13:52:53;68508.41;;;12.33
75353;BMP280;76704;51.574;7.088;2024-02-23T13:55:20;68465.19;;;12.30
75353;BMP280;76704;51.574;7.088;2024-02-23T13:57:48;68244.81;;;12.27
75353;BMP280;76704;51.574;7.088;2024-02-23T14:00:17;68824.81;;;12.34
75353;BMP280;76704;51.574;7.088;2024-02-23T14:02:46;68684.56;;;12.33
75353;BMP280;76704;51.574;7.088;2024-02-23T14:05:14;68541.03;;;12.34
75353;BMP280;76704;51.574;7.088;2024-02-23T14:07:42;69273.16;;;12.46
75353;BMP280;76704;51.574;7.088;2024-02-23T14:10:09;69255.94;;;12.47
75353;BMP280;76704;51.574;7.088;2024-02-23T14:12:37;69338.38;;;12.49
75353;BMP280;76704;51.574;7.088;2024-02-23T14:15:04;68471.94;;;12.34
75353;BMP280;76704;51.574;7.088;2024-02-23T14:17:32;68394.44;;;12.32
75353;BMP280;76704;51.574;7.088;2024-02-23T14:20:00;69108.75;;;12.45
75353;BMP280;76704;51.574;7.088;2024-02-23T14:22:28;69288.59;;;12.48
75353;BMP280;76704;51.574;7.088;2024-02-23T14:24:55;69616.19;;;12.56
75353;BMP280;76704;51.574;7.088;2024-02-23T14:27:22;70083.22;;;12.65